Time;durP1;ratioP1;P1;durP2;ratioP2;P2;SDS_P1;SDS_P2;PMS_P1;PMS_P2;Temp;Humidity;BMP_temperature;BMP_pressure;BME280_temperature;BME280_humidity;BME280_pressure;Samples;Min_cycle;Max_cycle;Signal;HPM_P1;HPM_P2
2021/05/25 00:00:08;;;;;;;10.05;7.53;;;11.80;99.90;;;;;;5055107;28;20021;-77
2021/05/25 00:02:34;;;;;;;12.53;8.37;;;11.80;99.90;;;;;;5054912;28;20540;-76
2021/05/25 00:04:59;;;;;;;11.38;8.82;;;11.80;99.90;;;;;;5059463;28;20032;-76
2021/05/25 00:07:25;;;;;;;9.50;7.55;;;11.90;99.90;;;;;;5074671;28;20496;-76
2021/05/25 00:09:51;;;;;;;11.50;7.60;;;11.90;99.90;;;;;;5074913;28;20074;-76
2021/05/25 00:12:16;;;;;;;11.73;7.43;;;11.90;99.90;;;;;;5083309;28;20020;-76
2021/05/25 00:14:42;;;;;;;11.73;7.95;;;11.90;99.90;;;;;;5095005;28;20020;-77
2021/05/25 00:17:08;;;;;;;9.02;7.32;;;11.90;99.90;;;;;;5093757;28;20024;-76
2021/05/25 00:19:34;;;;;;;11.77;8.05;;;11.90;99.90;;;;;;5094878;28;20077;-76
2021/05/25 00:21:59;;;;;;;9.57;7.53;;;12.00;99.90;;;;;;5069752;28;20398;-76
2021/05/25 00:24:25;;;;;;;10.20;7.45;;;12.00;99.90;;;;;;5055954;28;20029;-76
2021/05/25 00:26:50;;;;;;;12.13;7.43;;;12.00;99.90;;;;;;5053241;28;20021;-76
2021/05/25 00:29:16;;;;;;;9.88;7.13;;;12.00;99.90;;;;;;5054449;28;20036;-76
2021/05/25 00:31:42;;;;;;;8.85;7.30;;;12.00;99.90;;;;;;5054415;28;20403;-77
2021/05/25 00:34:08;;;;;;;10.35;6.82;;;12.00;99.90;;;;;;5054387;28;20021;-76
2021/05/25 00:36:36;;;;;;;11.23;6.82;;;12.00;99.90;;;;;;5054461;28;20028;-76
2021/05/25 00:39:05;;;;;;;9.55;6.25;;;11.90;99.90;;;;;;5052977;28;20394;-76
2021/05/25 00:41:32;;;;;;;9.00;6.80;;;11.90;99.90;;;;;;5052887;28;20025;-76
2021/05/25 00:43:58;;;;;;;11.38;6.93;;;11.90;99.90;;;;;;5054141;28;20040;-76
2021/05/25 00:46:24;;;;;;;8.70;6.45;;;11.90;99.90;;;;;;5052840;28;20487;-77
2021/05/25 00:48:50;;;;;;;10.95;7.18;;;11.80;99.90;;;;;;5054076;28;20033;-76
2021/05/25 00:51:16;;;;;;;8.57;5.68;;;11.90;99.90;;;;;;5054096;28;20028;-76
2021/05/25 00:53:42;;;;;;;7.82;6.18;;;11.80;99.90;;;;;;5052670;28;20025;-76
2021/05/25 00:56:08;;;;;;;8.52;5.90;;;11.90;99.90;;;;;;5053986;28;20493;-77
2021/05/25 00:58:35;;;;;;;8.32;6.00;;;11.90;99.90;;;;;;5083116;28;20066;-76
2021/05/25 01:01:01;;;;;;;8.80;6.13;;;11.90;99.90;;;;;;5092800;28;20051;-76
2021/05/25 01:03:27;;;;;;;8.43;5.43;;;11.90;99.90;;;;;;5092679;28;20024;-76
2021/05/25 01:05:52;;;;;;;7.70;5.65;;;11.90;99.90;;;;;;5086069;28;20146;-77
2021/05/25 01:08:18;;;;;;;9.02;5.85;;;11.90;99.90;;;;;;5057402;28;20029;-76
2021/05/25 01:10:50;;;;;;;9.43;5.50;;;11.90;99.90;;;;;;5052387;28;20052;-76
2021/05/25 01:13:21;;;;;;;7.28;5.55;;;11.90;99.90;;;;;;5052393;28;20033;-76
2021/05/25 01:15:48;;;;;;;7.78;5.97;;;11.90;99.90;;;;;;5052588;28;20033;-76
2021/05/25 01:18:15;;;;;;;7.38;5.35;;;11.90;99.90;;;;;;5052234;28;20025;-76
2021/05/25 01:20:41;;;;;;;7.47;5.70;;;11.80;99.90;;;;;;5052129;28;20044;-77
2021/05/25 01:23:09;;;;;;;9.75;6.43;;;11.80;99.90;;;;;;5053463;28;20029;-76
2021/05/25 01:25:37;;;;;;;8.18;5.65;;;11.80;99.90;;;;;;5053487;28;20364;-76
2021/05/25 01:28:05;;;;;;;15.77;5.22;;;11.80;99.90;;;;;;5052093;28;20098;-76
2021/05/25 01:30:35;;;;;;;7.18;5.93;;;11.80;99.90;;;;;;5052101;28;20385;-76
2021/05/25 01:33:02;;;;;;;9.00;5.55;;;11.80;99.90;;;;;;5053591;28;20068;-76
2021/05/25 01:35:29;;;;;;;14.77;4.93;;;11.80;99.90;;;;;;5053417;28;20410;-76
2021/05/25 01:37:55;;;;;;;7.38;5.40;;;11.80;99.90;;;;;;5051895;28;20043;-76
2021/05/25 01:40:22;;;;;;;8.50;5.80;;;11.80;99.90;;;;;;5053258;28;20025;-76
2021/05/25 01:42:48;;;;;;;9.10;5.82;;;11.90;99.90;;;;;;5054971;28;20033;-76
2021/05/25 01:45:19;;;;;;;8.30;5.90;;;11.80;99.90;;;;;;5073170;28;20024;-76
2021/05/25 01:47:44;;;;;;;9.30;5.70;;;11.80;99.90;;;;;;5071775;28;20021;-76
2021/05/25 01:50:16;;;;;;;7.72;5.35;;;11.70;99.90;;;;;;5071447;28;20031;-77
2021/05/25 01:52:48;;;;;;;5.53;4.68;;;11.70;99.90;;;;;;5071725;28;20044;-77
2021/05/25 01:55:36;;;;;;;9.23;5.57;;;11.70;99.90;;;;;;5070033;28;20082;-76
2021/05/25 01:58:21;;;;;;;5.45;4.28;;;11.70;99.90;;;;;;5071726;28;20024;-76
2021/05/25 02:00:52;;;;;;;5.75;4.68;;;11.70;99.90;;;;;;5064442;28;20497;-76
2021/05/25 02:03:18;;;;;;;6.07;5.47;;;11.70;99.90;;;;;;5051573;28;20382;-76
2021/05/25 02:05:47;;;;;;;8.15;5.43;;;11.80;99.90;;;;;;5053056;28;20116;-76
2021/05/25 02:08:14;;;;;;;4.85;4.20;;;11.80;99.90;;;;;;5051482;28;20112;-76
2021/05/25 02:10:41;;;;;;;5.78;4.30;;;11.70;99.90;;;;;;5051453;28;20079;-76
2021/05/25 02:13:09;;;;;;;5.13;3.85;;;11.70;99.90;;;;;;5058308;28;20035;-76
2021/05/25 02:15:36;;;;;;;7.28;4.32;;;11.70;99.90;;;;;;5071517;28;20466;-76
2021/05/25 02:18:09;;;;;;;6.57;4.43;;;11.60;99.90;;;;;;5071502;28;20029;-76
2021/05/25 02:20:36;;;;;;;5.32;3.75;;;11.70;99.90;;;;;;5079941;28;20442;-76
2021/05/25 02:23:03;;;;;;;6.65;3.50;;;11.60;99.90;;;;;;5092946;28;20024;-77
2021/05/25 02:25:29;;;;;;;6.00;4.53;;;11.60;99.90;;;;;;5092878;28;20031;-76
2021/05/25 02:27:55;;;;;;;9.27;5.10;;;11.60;99.90;;;;;;5092911;28;20044;-76
2021/05/25 02:30:21;;;;;;;8.93;5.40;;;11.60;99.90;;;;;;5091627;28;20513;-76
2021/05/25 02:32:48;;;;;;;6.60;4.20;;;11.60;99.90;;;;;;5091420;28;20381;-76
2021/05/25 02:35:14;;;;;;;9.50;5.88;;;11.60;99.90;;;;;;5092802;28;20027;-76
2021/05/25 02:37:40;;;;;;;7.85;4.88;;;11.60;99.90;;;;;;5092676;28;20020;-76
2021/05/25 02:40:08;;;;;;;8.88;5.00;;;11.60;99.90;;;;;;5091430;28;20038;-76
2021/05/25 02:42:33;;;;;;;6.53;5.05;;;11.50;99.90;;;;;;5089366;28;20066;-76
2021/05/25 02:44:59;;;;;;;7.00;4.75;;;11.50;99.90;;;;;;5062880;28;20094;-76
2021/05/25 02:47:25;;;;;;;8.43;6.18;;;11.50;99.90;;;;;;5051093;28;20025;-77
2021/05/25 02:49:50;;;;;;;7.25;6.03;;;11.60;99.90;;;;;;5052478;28;20102;-77
2021/05/25 02:52:16;;;;;;;7.80;6.05;;;11.60;99.90;;;;;;5051110;28;20029;-76
2021/05/25 02:54:42;;;;;;;7.88;5.43;;;11.60;99.90;;;;;;5052552;28;20021;-76
2021/05/25 02:57:08;;;;;;;7.72;5.95;;;11.60;99.90;;;;;;5050712;28;20029;-76
2021/05/25 02:59:34;;;;;;;7.10;5.07;;;11.60;99.90;;;;;;5051019;28;20053;-76
2021/05/25 03:02:00;;;;;;;5.28;4.05;;;11.70;99.90;;;;;;5050980;28;20491;-76
2021/05/25 03:04:25;;;;;;;7.20;3.63;;;11.70;99.90;;;;;;5055804;28;20068;-76
2021/05/25 03:06:51;;;;;;;5.35;3.85;;;11.70;99.90;;;;;;5054831;28;20029;-76
2021/05/25 03:09:17;;;;;;;5.00;4.32;;;11.70;99.90;;;;;;5055969;28;20029;-76
2021/05/25 03:11:44;;;;;;;6.25;4.72;;;11.70;99.90;;;;;;5056124;28;20029;-77
2021/05/25 03:14:09;;;;;;;4.65;3.60;;;11.60;99.90;;;;;;5054621;28;20033;-76
2021/05/25 03:16:35;;;;;;;4.43;4.00;;;11.60;99.90;;;;;;5054596;28;20155;-76
2021/05/25 03:19:01;;;;;;;4.63;3.55;;;11.60;99.90;;;;;;5054608;28;20025;-76
2021/05/25 03:21:26;;;;;;;5.07;3.28;;;11.60;99.90;;;;;;5055667;28;20041;-76
2021/05/25 03:23:54;;;;;;;6.20;3.03;;;11.60;99.90;;;;;;5064040;28;20104;-76
2021/05/25 03:26:21;;;;;;;5.70;3.47;;;11.60;99.90;;;;;;5075000;28;20020;-76
2021/05/25 03:28:47;;;;;;;6.57;3.40;;;11.60;99.90;;;;;;5072048;28;20701;-76
2021/05/25 03:31:13;;;;;;;5.78;3.70;;;11.60;99.90;;;;;;5071450;28;20034;-76
2021/05/25 03:33:39;;;;;;;6.20;3.33;;;11.60;99.90;;;;;;5074168;28;20016;-76
2021/05/25 03:36:05;;;;;;;6.75;4.05;;;11.60;99.90;;;;;;5075190;28;20100;-77
2021/05/25 03:38:31;;;;;;;4.78;3.58;;;11.70;99.90;;;;;;5071760;28;20074;-76
2021/05/25 03:40:56;;;;;;;4.90;3.10;;;11.70;99.90;;;;;;5071421;28;20128;-76
2021/05/25 03:43:22;;;;;;;3.42;3.08;;;11.70;99.90;;;;;;5071667;28;20023;-76
2021/05/25 03:45:48;;;;;;;3.83;3.35;;;11.70;99.90;;;;;;5073360;28;20103;-76
2021/05/25 03:48:14;;;;;;;6.90;3.30;;;11.70;99.90;;;;;;5072958;28;20024;-76
2021/05/25 03:50:40;;;;;;;3.63;2.83;;;11.70;99.90;;;;;;5072902;28;20021;-76
2021/05/25 03:53:05;;;;;;;5.10;3.25;;;11.70;99.90;;;;;;5073593;28;20020;-76
2021/05/25 04:00:44;;;;;;;5.28;3.03;;;11.70;99.90;;;;;;5075142;28;20119;-76
2021/05/25 04:03:10;;;;;;;6.03;3.13;;;11.70;99.90;;;;;;5074928;28;20032;-76
2021/05/25 04:05:36;;;;;;;6.60;3.35;;;11.80;99.90;;;;;;5073170;28;20033;-76
2021/05/25 04:08:02;;;;;;;5.43;3.28;;;11.80;99.90;;;;;;5073645;28;20401;-76
2021/05/25 04:10:28;;;;;;;4.75;3.80;;;11.80;99.90;;;;;;5074856;28;20025;-77
2021/05/25 04:12:54;;;;;;;4.00;3.33;;;11.90;99.90;;;;;;5075806;28;20031;-76
2021/05/25 04:15:20;;;;;;;4.47;2.92;;;12.00;99.90;;;;;;5094974;28;20026;-76
2021/05/25 04:17:46;;;;;;;4.35;3.20;;;11.80;99.90;;;;;;5094859;28;20024;-76
2021/05/25 04:20:13;;;;;;;6.97;3.60;;;11.90;99.90;;;;;;5093704;28;20012;-76
2021/05/25 04:22:39;;;;;;;5.38;3.33;;;11.90;99.90;;;;;;5093255;28;20118;-76
2021/05/25 04:25:06;;;;;;;4.47;3.20;;;11.90;99.90;;;;;;5093547;28;20016;-76
2021/05/25 04:27:32;;;;;;;5.45;4.03;;;12.00;99.90;;;;;;5093258;28;20028;-76
2021/05/25 04:29:58;;;;;;;4.53;3.80;;;11.90;99.90;;;;;;5093433;28;20074;-77
2021/05/25 04:32:24;;;;;;;5.20;3.65;;;11.90;99.90;;;;;;5093323;28;20409;-76
2021/05/25 04:34:49;;;;;;;12.93;5.88;;;11.90;99.90;;;;;;5094449;28;20460;-77
2021/05/25 04:37:15;;;;;;;8.57;5.07;;;11.90;99.90;;;;;;5093247;28;20025;-76
2021/05/25 04:39:41;;;;;;;10.07;4.85;;;12.00;99.90;;;;;;5093262;28;20428;-76
2021/05/25 04:42:06;;;;;;;10.05;5.45;;;12.00;99.90;;;;;;5091913;28;20039;-76
2021/05/25 04:44:32;;;;;;;8.00;4.20;;;12.00;99.90;;;;;;5088075;28;20017;-76
2021/05/25 04:46:58;;;;;;;5.60;3.78;;;12.00;99.90;;;;;;5072630;28;20017;-76
2021/05/25 04:49:23;;;;;;;4.88;3.13;;;12.10;99.90;;;;;;5070947;28;20418;-76
2021/05/25 04:51:49;;;;;;;5.63;3.28;;;12.00;99.90;;;;;;5073395;28;20394;-76
2021/05/25 04:54:15;;;;;;;4.18;3.00;;;12.00;99.90;;;;;;5072499;28;20073;-76
2021/05/25 04:56:40;;;;;;;3.15;2.85;;;12.00;99.90;;;;;;5072241;28;20954;-76
2021/05/25 04:59:06;;;;;;;6.72;3.13;;;12.00;99.90;;;;;;5073389;28;20033;-76
2021/05/25 05:01:33;;;;;;;8.13;3.78;;;12.00;99.90;;;;;;5073285;28;20029;-76
2021/05/25 05:03:58;;;;;;;6.03;3.20;;;12.00;99.90;;;;;;5072535;28;20031;-76
2021/05/25 05:06:24;;;;;;;6.05;4.38;;;12.00;99.90;;;;;;5072681;28;20024;-76
2021/05/25 05:08:50;;;;;;;7.43;3.10;;;12.00;99.90;;;;;;5073665;28;20017;-76
2021/05/25 05:11:15;;;;;;;4.57;3.65;;;12.10;99.90;;;;;;5072332;28;20025;-76
2021/05/25 05:13:41;;;;;;;3.50;2.90;;;12.10;99.90;;;;;;5072321;28;20021;-76
2021/05/25 05:16:07;;;;;;;6.32;3.33;;;12.10;99.90;;;;;;5072369;28;20020;-77
2021/05/25 05:18:32;;;;;;;5.20;4.70;;;12.10;99.90;;;;;;5073539;28;20451;-76
2021/05/25 05:20:58;;;;;;;6.68;4.05;;;12.20;99.90;;;;;;5073440;28;20086;-76
2021/05/25 05:23:24;;;;;;;6.47;4.43;;;12.20;99.90;;;;;;5068637;28;20456;-76
2021/05/25 05:25:49;;;;;;;7.30;4.85;;;12.20;99.90;;;;;;5072068;28;20020;-76
2021/05/25 05:28:15;;;;;;;6.22;4.55;;;12.20;99.90;;;;;;5070418;28;20074;-77
2021/05/25 05:30:41;;;;;;;7.95;4.72;;;12.20;99.90;;;;;;5067336;28;20035;-76
2021/05/25 05:33:08;;;;;;;7.68;5.28;;;12.20;99.90;;;;;;5063868;28;20040;-76
2021/05/25 05:35:34;;;;;;;10.55;4.85;;;12.30;99.90;;;;;;5068141;28;20021;-77
2021/05/25 05:38:00;;;;;;;7.78;4.93;;;12.20;99.90;;;;;;5071027;28;20021;-76
2021/05/25 05:40:26;;;;;;;8.52;5.00;;;12.30;99.90;;;;;;5071133;28;20065;-76
2021/05/25 05:42:52;;;;;;;7.45;5.22;;;12.30;99.90;;;;;;5070929;28;20493;-76
2021/05/25 05:45:20;;;;;;;10.75;8.50;;;12.40;99.90;;;;;;5072284;28;20537;-76
2021/05/25 05:47:45;;;;;;;10.50;7.90;;;12.40;99.90;;;;;;5070529;28;20031;-76
2021/05/25 05:50:11;;;;;;;8.80;5.18;;;12.40;99.90;;;;;;5070759;28;20398;-76
2021/05/25 05:52:41;;;;;;;7.18;4.07;;;12.40;99.90;;;;;;5069738;28;20028;-76
2021/05/25 05:55:08;;;;;;;7.13;4.13;;;12.40;99.90;;;;;;5070922;28;20027;-76
2021/05/25 05:57:35;;;;;;;7.07;4.38;;;12.40;99.90;;;;;;5072055;28;20032;-76
2021/05/25 06:00:00;;;;;;;7.78;4.32;;;12.40;99.90;;;;;;5070685;28;20021;-76
2021/05/25 06:02:26;;;;;;;8.65;5.22;;;12.40;99.90;;;;;;5068729;28;20035;-76
2021/05/25 06:04:52;;;;;;;9.75;4.13;;;12.40;99.90;;;;;;5070811;28;20060;-75
2021/05/25 06:07:19;;;;;;;5.72;3.67;;;12.40;99.90;;;;;;5070503;28;20027;-76
2021/05/25 06:09:46;;;;;;;6.45;5.10;;;12.40;99.90;;;;;;5070674;28;20069;-76
2021/05/25 06:12:12;;;;;;;6.95;4.00;;;12.40;99.90;;;;;;5071806;28;20081;-76
2021/05/25 06:14:38;;;;;;;7.13;4.10;;;12.50;99.90;;;;;;5070752;28;20029;-76
2021/05/25 06:17:03;;;;;;;5.88;4.60;;;12.50;99.90;;;;;;5071774;28;20025;-76
2021/05/25 06:19:29;;;;;;;7.25;4.40;;;12.50;99.90;;;;;;5070283;28;20021;-76
2021/05/25 06:21:55;;;;;;;6.28;3.83;;;12.50;99.90;;;;;;5070404;28;20044;-76
2021/05/25 06:24:20;;;;;;;4.57;3.63;;;12.60;99.90;;;;;;5069569;28;20481;-76
2021/05/25 06:26:46;;;;;;;5.15;3.55;;;12.60;99.90;;;;;;5071762;28;20052;-76
2021/05/25 06:29:12;;;;;;;5.43;4.57;;;12.70;99.90;;;;;;5071545;28;20103;-76
2021/05/25 06:31:38;;;;;;;7.25;5.10;;;12.70;99.90;;;;;;5070396;28;20027;-76
2021/05/25 06:34:03;;;;;;;7.38;4.63;;;12.80;99.90;;;;;;5069861;28;20029;-76
2021/05/25 06:36:29;;;;;;;15.23;8.18;;;12.80;99.90;;;;;;5071415;28;20021;-76
2021/05/25 06:38:55;;;;;;;11.63;7.22;;;12.70;99.90;;;;;;5074454;28;20028;-76
2021/05/25 06:41:20;;;;;;;10.07;5.85;;;12.70;99.90;;;;;;5074353;28;20150;-76
2021/05/25 06:43:46;;;;;;;5.25;3.65;;;12.70;99.90;;;;;;5074264;28;20021;-76
2021/05/25 06:46:12;;;;;;;7.57;3.70;;;12.80;99.90;;;;;;5072937;28;20028;-76
2021/05/25 06:48:37;;;;;;;6.78;5.32;;;12.70;99.90;;;;;;5075095;28;20035;-76
2021/05/25 06:51:07;;;;;;;7.80;5.10;;;12.80;99.90;;;;;;5074177;28;20027;-76
2021/05/25 06:53:36;;;;;;;7.78;3.90;;;12.90;99.90;;;;;;5075292;28;20094;-76
2021/05/25 06:56:03;;;;;;;5.97;3.83;;;13.00;99.90;;;;;;5074079;28;20024;-76
2021/05/25 06:58:29;;;;;;;11.27;4.30;;;13.00;99.90;;;;;;5072942;28;20393;-76
2021/05/25 07:00:55;;;;;;;4.03;3.35;;;13.10;99.90;;;;;;5073700;28;20103;-76
2021/05/25 07:03:20;;;;;;;8.70;5.15;;;13.10;99.90;;;;;;5073501;28;20418;-76
2021/05/25 07:05:46;;;;;;;3.97;3.38;;;13.20;99.90;;;;;;5073902;28;20028;-76
2021/05/25 07:08:12;;;;;;;7.07;3.17;;;13.30;99.90;;;;;;5073635;28;20063;-76
2021/05/25 07:10:37;;;;;;;5.05;3.58;;;13.30;99.90;;;;;;5073671;28;20067;-76
2021/05/25 07:13:03;;;;;;;4.38;3.03;;;13.40;99.90;;;;;;5073846;28;20370;-76
2021/05/25 07:15:30;;;;;;;4.57;2.88;;;13.40;99.90;;;;;;5057027;28;20041;-76
2021/05/25 07:17:56;;;;;;;4.15;3.15;;;13.50;99.90;;;;;;5073552;28;20028;-77
2021/05/25 07:20:23;;;;;;;4.70;3.45;;;13.60;99.90;;;;;;5072618;28;20041;-77
2021/05/25 07:22:52;;;;;;;5.95;3.33;;;13.50;99.90;;;;;;5069602;28;20043;-76
2021/05/25 07:25:22;;;;;;;6.53;3.50;;;13.40;99.90;;;;;;5067260;28;20474;-76
2021/05/25 07:27:48;;;;;;;5.13;4.25;;;13.40;99.90;;;;;;5071584;28;20024;-76
2021/05/25 07:30:14;;;;;;;6.07;3.85;;;13.40;99.90;;;;;;5069687;28;20035;-77
2021/05/25 07:32:40;;;;;;;6.18;3.83;;;13.50;99.90;;;;;;5069574;28;20017;-76
2021/05/25 07:35:06;;;;;;;6.13;3.58;;;13.50;99.90;;;;;;5071473;28;20270;-76
2021/05/25 07:37:32;;;;;;;5.88;3.78;;;13.50;99.90;;;;;;5071388;28;20035;-76
2021/05/25 07:39:58;;;;;;;9.80;4.32;;;13.60;99.90;;;;;;5070669;28;20021;-76
2021/05/25 07:42:25;;;;;;;9.13;3.95;;;13.60;99.90;;;;;;5070594;28;20040;-76
2021/05/25 07:44:51;;;;;;;7.35;3.92;;;13.70;99.90;;;;;;5072772;28;20424;-76
2021/05/25 07:47:17;;;;;;;10.10;5.50;;;13.60;99.90;;;;;;5070748;28;20020;-76
2021/05/25 07:49:43;;;;;;;11.55;5.43;;;13.60;99.90;;;;;;5070589;28;20040;-76
2021/05/25 07:52:09;;;;;;;18.92;8.63;;;13.70;99.90;;;;;;5069680;28;20020;-76
2021/05/25 07:54:34;;;;;;;29.23;12.52;;;13.60;99.90;;;;;;5071883;28;20017;-76
2021/05/25 07:57:00;;;;;;;6.40;3.83;;;13.60;99.90;;;;;;5071642;28;20028;-76
2021/05/25 07:59:26;;;;;;;4.97;3.15;;;13.50;99.90;;;;;;5073255;28;20042;-76
2021/05/25 08:01:53;;;;;;;6.88;2.50;;;13.40;99.90;;;;;;5073255;28;20031;-76
2021/05/25 08:04:19;;;;;;;4.03;3.58;;;13.40;99.90;;;;;;5073304;28;20028;-76
2021/05/25 08:06:45;;;;;;;11.15;7.30;;;13.30;99.90;;;;;;5073461;28;20025;-76
2021/05/25 08:09:10;;;;;;;4.28;3.88;;;13.30;99.90;;;;;;5073476;28;20021;-76
2021/05/25 08:11:36;;;;;;;13.02;8.90;;;13.30;99.90;;;;;;5074718;28;20367;-76
2021/05/25 08:14:05;;;;;;;8.32;4.20;;;13.40;99.90;;;;;;5074675;28;20020;-76
2021/05/25 08:16:33;;;;;;;6.57;3.95;;;13.30;99.90;;;;;;5073136;28;20020;-76
2021/05/25 08:19:09;;;;;;;7.97;4.43;;;13.40;99.90;;;;;;5074555;28;20436;-77
2021/05/25 08:21:37;;;;;;;8.52;4.78;;;13.40;99.90;;;;;;5073140;28;20048;-76
2021/05/25 08:24:03;;;;;;;5.35;4.07;;;13.40;99.90;;;;;;5074442;28;20025;-76
2021/05/25 08:26:29;;;;;;;8.57;6.20;;;13.50;99.90;;;;;;5073229;28;20020;-76
2021/05/25 08:28:55;;;;;;;9.25;6.15;;;13.40;99.90;;;;;;5072959;28;20073;-76
2021/05/25 08:31:21;;;;;;;6.35;4.47;;;13.40;99.90;;;;;;5074061;28;20044;-77
2021/05/25 08:33:47;;;;;;;17.38;9.93;;;13.50;99.90;;;;;;5072839;28;20032;-76
2021/05/25 08:36:16;;;;;;;13.30;8.00;;;13.60;99.90;;;;;;5072864;28;20028;-76
2021/05/25 08:38:41;;;;;;;8.75;5.65;;;13.60;99.90;;;;;;5070929;28;20399;-76
2021/05/25 08:41:07;;;;;;;8.85;6.28;;;13.60;99.90;;;;;;5071773;28;20028;-76
2021/05/25 08:43:33;;;;;;;10.73;8.18;;;13.70;99.90;;;;;;5072012;28;20374;-77
2021/05/25 08:45:58;;;;;;;9.40;6.03;;;13.80;99.90;;;;;;5071770;28;20032;-76
2021/05/25 08:48:24;;;;;;;9.88;7.75;;;13.80;99.90;;;;;;5072608;28;20535;-76
2021/05/25 08:51:00;;;;;;;4.93;4.35;;;13.90;99.90;;;;;;5071214;28;20028;-76
2021/05/25 08:53:29;;;;;;;11.32;8.27;;;13.90;99.90;;;;;;5071869;28;20111;-76
2021/05/25 08:55:56;;;;;;;7.45;6.60;;;14.00;99.90;;;;;;5073132;28;20111;-76
2021/05/25 08:58:24;;;;;;;7.07;5.60;;;14.10;99.90;;;;;;5073090;28;20028;-76
2021/05/25 09:00:52;;;;;;;9.77;5.85;;;14.20;99.90;;;;;;5070506;28;20070;-76
2021/05/25 09:03:18;;;;;;;8.23;6.90;;;14.20;99.90;;;;;;5073001;28;20118;-76
2021/05/25 09:05:52;;;;;;;7.60;6.53;;;14.20;99.90;;;;;;5073294;28;20063;-76
2021/05/25 09:08:19;;;;;;;6.10;5.50;;;14.30;99.90;;;;;;5068262;28;20508;-76
2021/05/25 09:10:47;;;;;;;6.63;5.93;;;14.50;99.90;;;;;;5071998;28;20048;-76
2021/05/25 09:13:16;;;;;;;7.93;5.90;;;14.60;99.90;;;;;;5073462;28;20032;-76
2021/05/25 09:15:46;;;;;;;8.05;6.07;;;14.60;99.90;;;;;;5073114;28;20024;-76
2021/05/25 09:18:15;;;;;;;8.38;7.55;;;14.70;99.90;;;;;;5071679;28;20024;-77
2021/05/25 09:20:57;;;;;;;13.23;11.23;;;14.80;99.90;;;;;;5071893;28;20056;-77
2021/05/25 09:23:24;;;;;;;13.10;10.50;;;14.90;99.90;;;;;;5073214;28;20481;-76
2021/05/25 09:25:53;;;;;;;9.18;8.00;;;14.90;99.90;;;;;;5072022;28;20103;-76
2021/05/25 09:28:20;;;;;;;14.88;11.65;;;15.10;99.90;;;;;;5071437;28;20052;-76
2021/05/25 09:30:48;;;;;;;14.77;10.63;;;15.10;99.90;;;;;;5071539;28;20021;-77
2021/05/25 09:33:15;;;;;;;8.65;7.07;;;15.30;99.90;;;;;;5071516;28;20024;-76
2021/05/25 09:35:45;;;;;;;14.13;8.88;;;15.50;99.90;;;;;;5071590;28;20048;-76
2021/05/25 09:38:27;;;;;;;9.10;8.10;;;15.60;99.90;;;;;;5071778;28;20062;-76
2021/05/25 09:40:58;;;;;;;9.55;7.57;;;15.60;99.90;;;;;;5071591;28;20111;-77
2021/05/25 09:43:27;;;;;;;15.32;9.02;;;15.80;99.90;;;;;;5071448;28;20028;-76
2021/05/25 09:46:09;;;;;;;13.30;9.13;;;15.90;99.90;;;;;;5070978;28;20359;-77
2021/05/25 09:48:41;;;;;;;17.83;8.93;;;15.90;99.90;;;;;;5072777;28;20029;-76
2021/05/25 09:51:23;;;;;;;12.63;8.38;;;16.10;99.90;;;;;;5072795;28;20025;-77
2021/05/25 09:53:49;;;;;;;14.60;8.95;;;16.10;97.90;;;;;;5072765;28;20021;-77
2021/05/25 09:56:32;;;;;;;10.65;7.53;;;16.10;99.90;;;;;;5072591;28;20032;-77
2021/05/25 09:58:59;;;;;;;15.27;8.93;;;16.30;99.90;;;;;;5071910;28;20463;-77
2021/05/25 10:01:32;;;;;;;17.40;9.65;;;16.30;98.60;;;;;;5071066;28;20032;-77
2021/05/25 10:03:57;;;;;;;19.23;9.65;;;16.30;97.40;;;;;;5071396;28;20028;-77
2021/05/25 10:06:24;;;;;;;15.30;8.82;;;16.40;99.90;;;;;;5073175;28;20063;-77
2021/05/25 10:08:52;;;;;;;14.30;8.20;;;16.10;93.80;;;;;;5072517;28;20024;-77
2021/05/25 10:11:18;;;;;;;17.08;10.05;;;16.00;96.60;;;;;;5070892;28;20549;-77
2021/05/25 10:13:45;;;;;;;12.48;8.07;;;15.90;99.60;;;;;;5072268;28;20070;-77
2021/05/25 10:16:12;;;;;;;12.57;7.18;;;15.70;99.00;;;;;;5070896;28;20109;-77
2021/05/25 10:18:50;;;;;;;10.10;5.80;;;15.50;98.50;;;;;;5071122;28;20048;-77
2021/05/25 10:21:17;;;;;;;8.75;5.50;;;15.40;99.90;;;;;;5071329;28;20032;-77
2021/05/25 10:23:43;;;;;;;7.78;5.03;;;15.30;99.90;;;;;;5071089;28;20073;-77
2021/05/25 10:26:17;;;;;;;7.35;4.97;;;15.20;99.90;;;;;;5071185;28;20466;-77
2021/05/25 10:28:50;;;;;;;6.80;5.82;;;15.10;99.90;;;;;;5072367;28;20025;-77
2021/05/25 10:31:35;;;;;;;7.45;5.05;;;14.90;99.90;;;;;;5070772;28;20028;-77
2021/05/25 10:34:20;;;;;;;9.48;5.32;;;14.90;99.90;;;;;;5072186;28;20477;-77
2021/05/25 10:36:53;;;;;;;9.23;5.38;;;14.90;99.90;;;;;;5072218;28;20488;-77
2021/05/25 10:39:28;;;;;;;6.78;5.82;;;14.90;99.90;;;;;;5059328;28;20086;-77
2021/05/25 10:42:19;;;;;;;7.90;5.80;;;14.90;99.90;;;;;;5051004;28;20083;-77
2021/05/25 10:44:53;;;;;;;7.45;6.00;;;14.80;99.90;;;;;;5052003;28;20013;-77
2021/05/25 10:47:22;;;;;;;6.97;5.97;;;14.80;99.90;;;;;;5050904;28;20029;-77
2021/05/25 10:50:17;;;;;;;7.10;5.35;;;14.70;99.90;;;;;;5050993;28;20076;-77
2021/05/25 10:53:27;;;;;;;7.18;5.45;;;14.70;99.90;;;;;;5052217;28;20021;-77
2021/05/25 10:55:53;;;;;;;8.57;5.75;;;14.70;99.90;;;;;;5052286;28;20052;-77
2021/05/25 10:58:31;;;;;;;7.40;6.20;;;14.70;99.90;;;;;;5052546;28;20380;-77
2021/05/25 11:00:59;;;;;;;10.40;6.60;;;14.70;99.90;;;;;;5051843;28;20351;-77
2021/05/25 11:03:25;;;;;;;7.10;6.40;;;14.60;99.90;;;;;;5051037;28;20018;-75
2021/05/25 11:06:01;;;;;;;11.45;8.20;;;14.70;99.90;;;;;;5053543;28;20482;-77
2021/05/25 11:08:29;;;;;;;8.48;7.55;;;14.70;99.90;;;;;;5050612;28;20557;-77
2021/05/25 11:11:04;;;;;;;8.25;7.45;;;14.70;99.90;;;;;;5059782;28;20166;-77
2021/05/25 11:13:38;;;;;;;4.20;2.00;;;14.50;99.90;;;;;;5060383;28;20458;-77
2021/05/25 11:16:27;;;;;;;1.50;1.27;;;13.70;99.90;;;;;;5059399;28;20028;-77
2021/05/25 11:19:11;;;;;;;1.52;1.10;;;13.00;99.90;;;;;;5058956;28;20052;-77
2021/05/25 11:24:32;;;;;;;2.25;1.17;;;11.90;99.90;;;;;;5071422;28;20025;-76
2021/05/25 11:27:07;;;;;;;2.10;1.00;;;11.70;99.90;;;;;;5070729;28;20087;-76
2021/05/25 11:29:39;;;;;;;1.58;1.30;;;11.40;99.90;;;;;;5071591;28;20024;-77
2021/05/25 11:32:11;;;;;;;2.03;1.25;;;11.20;99.90;;;;;;5068868;28;20020;-76
2021/05/25 11:34:38;;;;;;;1.90;1.25;;;11.10;99.90;;;;;;5069498;28;20489;-77
2021/05/25 11:37:05;;;;;;;1.20;1.10;;;11.00;99.90;;;;;;5068234;28;20541;-77
2021/05/25 11:39:36;;;;;;;1.27;0.88;;;11.00;99.90;;;;;;5071844;28;20105;-77
2021/05/25 11:42:05;;;;;;;4.97;1.17;;;10.80;99.90;;;;;;5071977;28;20071;-77
2021/05/25 11:44:45;;;;;;;1.83;1.50;;;10.80;99.90;;;;;;5071221;28;20520;-77
2021/05/25 11:47:12;;;;;;;1.45;1.35;;;10.60;99.90;;;;;;5073121;28;20028;-77
2021/05/25 11:49:42;;;;;;;2.30;2.10;;;10.60;99.90;;;;;;5074438;28;20021;-77
2021/05/25 11:52:22;;;;;;;3.47;1.33;;;10.60;99.90;;;;;;5072260;28;20437;-77
2021/05/25 11:54:49;;;;;;;3.78;1.70;;;10.60;99.90;;;;;;5072947;28;20029;-77
2021/05/25 11:57:31;;;;;;;1.58;1.48;;;10.60;99.90;;;;;;5074190;28;20082;-76
2021/05/25 11:59:59;;;;;;;4.95;1.90;;;10.60;99.90;;;;;;5074100;28;20024;-77
2021/05/25 12:02:29;;;;;;;3.35;1.60;;;10.50;99.90;;;;;;5073385;28;20082;-76
2021/05/25 12:05:03;;;;;;;1.98;1.83;;;10.60;99.90;;;;;;5074604;28;20028;-77
2021/05/25 12:07:29;;;;;;;2.80;1.75;;;10.50;99.90;;;;;;5065603;28;20044;-78
2021/05/25 12:09:58;;;;;;;2.72;2.20;;;10.70;99.90;;;;;;5067202;28;20025;-78
2021/05/25 12:12:26;;;;;;;2.97;1.80;;;10.70;99.90;;;;;;5074674;28;20036;-77
2021/05/25 12:14:53;;;;;;;5.10;2.03;;;10.70;99.90;;;;;;5073103;28;20070;-77
2021/05/25 12:17:23;;;;;;;1.60;1.38;;;10.80;99.90;;;;;;5074427;28;20029;-77
2021/05/25 12:19:54;;;;;;;3.85;2.15;;;10.90;99.90;;;;;;5065729;28;20028;-77
2021/05/25 12:22:32;;;;;;;3.08;2.58;;;10.90;99.90;;;;;;5052355;28;20048;-77
2021/05/25 12:25:30;;;;;;;2.40;2.17;;;11.00;99.90;;;;;;5058329;28;20078;-77
2021/05/25 12:28:10;;;;;;;5.38;2.08;;;11.00;99.90;;;;;;5052983;28;20052;-77
2021/05/25 12:30:44;;;;;;;6.20;4.25;;;11.00;99.90;;;;;;5053905;28;20025;-77
2021/05/25 12:33:19;;;;;;;8.07;4.22;;;11.20;99.90;;;;;;5052876;28;20025;-77
2021/05/25 12:35:46;;;;;;;9.27;5.72;;;11.20;99.90;;;;;;5053898;28;20025;-78
2021/05/25 12:38:15;;;;;;;6.15;4.80;;;11.40;99.90;;;;;;5054102;28;20082;-78
2021/05/25 12:40:43;;;;;;;6.28;5.03;;;11.50;99.90;;;;;;5054087;28;20500;-77
2021/05/25 12:43:23;;;;;;;7.32;4.95;;;11.60;99.90;;;;;;5053705;28;20087;-77
2021/05/25 12:45:51;;;;;;;5.82;3.08;;;11.80;99.90;;;;;;5054197;28;20027;-77
2021/05/25 12:48:18;;;;;;;3.20;2.50;;;11.80;99.90;;;;;;5054027;28;20470;-77
2021/05/25 12:50:46;;;;;;;3.90;2.30;;;11.90;99.90;;;;;;5052617;28;20056;-77
2021/05/25 12:53:13;;;;;;;3.58;2.75;;;12.00;99.90;;;;;;5053896;28;20032;-78
2021/05/25 12:55:54;;;;;;;2.13;1.85;;;12.10;99.90;;;;;;5052432;28;20025;-77
2021/05/25 12:58:38;;;;;;;2.53;2.28;;;12.10;99.90;;;;;;5060833;28;20032;-78